Tolleson, Arizona
Current Conditions -  °F | °C
As of 1:50 PM on Friday 24 Oct 2014 (Local Time) from KGEU Reporting Station
Clear Clear  
Wind Chill: 91°   Ceiling: Unl
Heat Index: 91°   Visibility: 20mi
Dew Point: 48°   Wind: 0mph
Humidity: 23%   Direction: NA
Pressure: 29.99"   Gusts: NA
Location:  33.45°N, 112.26°W
Report Text: KGEU 242050Z 00000KT 20SM SKC 33/09 A2999
Loading
Personal Weather Stations






























Interactive Weather Map
Tropical Storm Tracking
New forecast layout! Learn more

10-Day Weather Forecast

Advertisements
Track Severe Weather on mobile